Time;durP1;ratioP1;P1;durP2;ratioP2;P2;SDS_P1;SDS_P2;PMS_P1;PMS_P2;Temp;Humidity;BMP_temperature;BMP_pressure;BME280_temperature;BME280_humidity;BME280_pressure;Samples;Min_cycle;Max_cycle;Signal;HPM_P1;HPM_P2
2022/03/15 00:02:17;;;;;;;13.45;5.13;;;16.20;63.60;;;;;;4035088;29;20395;-64
2022/03/15 00:04:41;;;;;;;11.18;5.05;;;16.20;63.80;;;;;;4049254;29;20052;-64
2022/03/15 00:07:03;;;;;;;9.40;4.57;;;16.20;63.80;;;;;;4049092;29;20053;-64
2022/03/15 00:09:26;;;;;;;8.43;4.97;;;16.20;63.90;;;;;;4050704;29;20047;-64
2022/03/15 00:11:48;;;;;;;9.95;5.15;;;16.20;63.90;;;;;;4049859;29;20104;-64
2022/03/15 00:14:14;;;;;;;9.20;5.35;;;16.10;63.70;;;;;;4064445;29;20056;-64
2022/03/15 00:16:37;;;;;;;11.40;4.60;;;16.10;63.80;;;;;;4057388;29;20099;-64
2022/03/15 00:19:00;;;;;;;12.35;4.80;;;16.10;63.90;;;;;;4050493;29;20108;-63
2022/03/15 00:21:25;;;;;;;10.32;4.75;;;16.10;64.00;;;;;;4049172;29;20136;-63
2022/03/15 00:23:47;;;;;;;7.00;4.50;;;16.10;64.00;;;;;;4048872;29;20062;-64
2022/03/15 00:26:09;;;;;;;9.25;4.25;;;16.10;64.00;;;;;;4052711;29;20423;-64
2022/03/15 00:28:32;;;;;;;10.27;5.20;;;16.00;64.00;;;;;;4061919;29;20052;-64
2022/03/15 00:30:54;;;;;;;10.73;5.07;;;16.00;63.90;;;;;;4048736;29;20055;-63
2022/03/15 00:33:16;;;;;;;8.75;5.10;;;16.00;64.00;;;;;;4048009;29;20047;-64
2022/03/15 00:35:38;;;;;;;7.72;4.47;;;16.00;63.90;;;;;;4049112;29;20167;-64
2022/03/15 00:38:02;;;;;;;8.20;4.53;;;16.00;64.00;;;;;;4048885;29;20055;-64
2022/03/15 00:40:25;;;;;;;7.18;4.47;;;16.00;64.00;;;;;;4059761;29;20138;-64
2022/03/15 00:42:51;;;;;;;12.52;4.85;;;16.00;64.10;;;;;;4049676;29;20068;-64
2022/03/15 00:45:17;;;;;;;9.95;5.28;;;15.90;64.10;;;;;;4059670;29;20087;-64
2022/03/15 00:47:40;;;;;;;10.43;4.70;;;15.90;64.20;;;;;;4048792;29;20082;-63
2022/03/15 00:50:02;;;;;;;10.50;5.38;;;15.90;64.30;;;;;;4063146;29;20054;-64
2022/03/15 00:52:24;;;;;;;10.05;5.03;;;15.90;64.30;;;;;;4049749;29;20063;-64
2022/03/15 00:54:48;;;;;;;12.15;5.80;;;15.90;64.30;;;;;;4057320;29;20851;-64
2022/03/15 00:57:11;;;;;;;10.23;5.60;;;15.90;64.30;;;;;;4047528;29;20053;-64
2022/03/15 00:59:33;;;;;;;13.80;5.53;;;15.90;65.20;;;;;;4048051;29;20439;-63
2022/03/15 01:01:57;;;;;;;11.52;5.43;;;15.90;64.30;;;;;;4048290;29;20499;-64
2022/03/15 01:04:19;;;;;;;13.30;6.25;;;15.90;64.40;;;;;;4047385;29;20085;-64
2022/03/15 01:06:42;;;;;;;10.88;6.43;;;15.90;64.50;;;;;;4050408;29;20060;-63
2022/03/15 01:09:04;;;;;;;12.43;5.85;;;15.90;64.50;;;;;;4064389;29;20044;-64
2022/03/15 01:11:30;;;;;;;10.13;5.80;;;15.90;64.50;;;;;;4062972;29;20103;-64
2022/03/15 01:13:51;;;;;;;10.20;5.90;;;15.80;64.50;;;;;;4063552;29;20099;-64
2022/03/15 01:16:14;;;;;;;11.57;5.40;;;15.80;64.50;;;;;;4046409;29;20052;-64
2022/03/15 01:18:36;;;;;;;9.50;5.20;;;15.80;64.50;;;;;;4058674;29;20076;-64
2022/03/15 01:20:59;;;;;;;6.93;5.65;;;15.80;64.50;;;;;;4063113;29;20099;-64
2022/03/15 01:23:21;;;;;;;10.40;5.50;;;15.80;64.50;;;;;;4048319;29;20135;-64
2022/03/15 01:25:44;;;;;;;10.60;6.05;;;15.80;64.60;;;;;;4058479;29;20051;-63
2022/03/15 01:28:07;;;;;;;12.13;5.45;;;15.80;64.60;;;;;;4048522;29;20140;-64
2022/03/15 01:30:30;;;;;;;10.25;5.93;;;15.80;64.50;;;;;;4054589;29;20418;-64
2022/03/15 01:32:52;;;;;;;16.13;6.03;;;15.70;64.50;;;;;;4062794;29;20159;-64
2022/03/15 01:35:15;;;;;;;13.75;5.43;;;15.70;64.60;;;;;;4056143;29;20059;-64
2022/03/15 01:37:37;;;;;;;9.55;5.35;;;15.70;64.60;;;;;;4047695;29;20056;-63
2022/03/15 01:40:09;;;;;;;11.73;6.18;;;15.70;64.60;;;;;;4033018;29;20060;-63
2022/03/15 01:42:33;;;;;;;9.98;5.32;;;15.70;64.70;;;;;;4046455;29;20048;-63
2022/03/15 01:44:56;;;;;;;10.80;5.95;;;15.70;64.70;;;;;;4063546;29;20407;-63
2022/03/15 01:47:19;;;;;;;13.40;5.38;;;15.70;64.70;;;;;;4053122;29;20127;-63
2022/03/15 01:49:41;;;;;;;10.07;5.45;;;15.70;64.60;;;;;;4047866;29;20502;-63
2022/03/15 01:52:09;;;;;;;12.70;5.80;;;15.70;64.70;;;;;;4046443;29;20067;-63
2022/03/15 01:54:32;;;;;;;14.18;5.55;;;15.70;64.70;;;;;;4047462;29;20059;-63
2022/03/15 01:56:54;;;;;;;15.45;6.20;;;15.70;64.60;;;;;;4047748;29;20056;-63
2022/03/15 01:59:17;;;;;;;13.50;5.38;;;15.70;65.20;;;;;;4046691;29;20048;-63
2022/03/15 02:01:42;;;;;;;10.75;5.78;;;15.70;65.20;;;;;;4033514;29;20403;-64
2022/03/15 02:04:05;;;;;;;11.55;5.65;;;15.80;65.10;;;;;;4047512;29;20067;-63
2022/03/15 02:06:27;;;;;;;9.55;5.53;;;15.80;64.90;;;;;;4047694;29;20495;-63
2022/03/15 02:08:49;;;;;;;16.17;6.28;;;15.90;64.80;;;;;;4047532;29;20479;-63
2022/03/15 02:11:13;;;;;;;8.30;5.50;;;15.90;64.60;;;;;;4059312;29;20062;-63
2022/03/15 02:13:35;;;;;;;14.63;5.80;;;15.90;64.50;;;;;;4062801;29;20083;-63
2022/03/15 02:15:58;;;;;;;8.52;5.38;;;15.90;64.40;;;;;;4061475;29;20100;-63
2022/03/15 02:18:25;;;;;;;9.55;5.53;;;15.90;64.30;;;;;;4046834;29;20051;-63
2022/03/15 02:20:48;;;;;;;8.75;5.47;;;15.90;64.30;;;;;;4047989;29;20055;-63
2022/03/15 02:23:12;;;;;;;9.88;5.63;;;15.90;64.20;;;;;;4061303;29;20099;-63
2022/03/15 02:25:34;;;;;;;10.68;5.88;;;15.90;64.20;;;;;;4052327;29;20459;-64
2022/03/15 02:27:57;;;;;;;7.22;4.88;;;15.90;64.20;;;;;;4062537;29;20055;-63
2022/03/15 02:30:21;;;;;;;11.63;5.43;;;15.90;65.10;;;;;;4062023;29;20052;-64
2022/03/15 02:32:44;;;;;;;8.63;4.88;;;15.80;64.00;;;;;;4060872;29;20104;-64
2022/03/15 02:35:08;;;;;;;9.13;5.20;;;15.80;63.60;;;;;;4063112;29;20744;-64
2022/03/15 02:37:34;;;;;;;11.65;5.00;;;15.80;63.40;;;;;;4062281;29;20120;-64
2022/03/15 02:39:56;;;;;;;8.40;5.10;;;15.80;63.50;;;;;;4051026;29;20048;-64
2022/03/15 02:42:19;;;;;;;8.25;5.68;;;15.70;63.60;;;;;;4062746;29;20052;-63
2022/03/15 02:44:42;;;;;;;9.30;5.22;;;15.70;63.80;;;;;;4062877;29;20083;-63
2022/03/15 02:47:04;;;;;;;8.77;5.10;;;15.70;63.80;;;;;;4062724;29;20055;-63
2022/03/15 02:49:26;;;;;;;5.90;4.40;;;15.70;64.00;;;;;;4056548;29;20057;-63
2022/03/15 02:51:49;;;;;;;4.82;4.20;;;15.70;64.70;;;;;;4047232;29;20056;-63
2022/03/15 02:54:13;;;;;;;7.35;4.68;;;15.70;64.70;;;;;;4047099;29;20051;-63
2022/03/15 02:56:42;;;;;;;6.95;4.45;;;15.80;64.50;;;;;;4060485;29;20410;-63
2022/03/15 02:59:04;;;;;;;6.65;4.32;;;15.80;64.30;;;;;;4061977;29;20287;-63
2022/03/15 03:01:28;;;;;;;9.38;4.97;;;15.90;64.20;;;;;;4058632;29;20474;-63
2022/03/15 03:03:51;;;;;;;10.07;5.47;;;15.90;64.00;;;;;;4045723;29;20076;-63
2022/03/15 03:06:13;;;;;;;7.53;4.75;;;15.90;63.70;;;;;;4047257;29;20044;-63
2022/03/15 03:08:36;;;;;;;6.82;5.00;;;15.90;63.60;;;;;;4032665;29;20142;-63
2022/03/15 03:11:02;;;;;;;6.60;5.15;;;15.90;63.60;;;;;;4047030;29;20388;-63
2022/03/15 03:13:26;;;;;;;7.20;5.00;;;15.90;63.50;;;;;;4047256;29;20048;-63
2022/03/15 03:15:49;;;;;;;7.93;5.03;;;15.90;63.60;;;;;;4047069;29;20108;-63
2022/03/15 03:18:11;;;;;;;8.15;5.45;;;15.90;63.60;;;;;;4046849;29;20159;-63
2022/03/15 03:20:35;;;;;;;9.00;5.57;;;15.90;63.60;;;;;;4048423;29;20053;-63
2022/03/15 03:22:58;;;;;;;6.65;5.20;;;15.90;63.70;;;;;;4060139;29;20148;-63
2022/03/15 03:25:20;;;;;;;6.15;5.13;;;15.90;64.60;;;;;;4065170;29;20088;-63
2022/03/15 03:27:44;;;;;;;9.85;4.82;;;15.90;63.70;;;;;;4051191;29;20079;-63
2022/03/15 03:30:07;;;;;;;9.52;5.90;;;16.00;63.60;;;;;;4050688;29;20496;-63
2022/03/15 03:32:29;;;;;;;7.82;5.28;;;16.00;63.50;;;;;;4062447;29;20071;-64
2022/03/15 03:34:53;;;;;;;8.20;5.93;;;16.00;63.40;;;;;;4064825;29;20052;-63
2022/03/15 03:37:15;;;;;;;9.65;6.20;;;16.00;63.30;;;;;;4064569;29;20051;-63
2022/03/15 03:39:37;;;;;;;11.73;6.60;;;16.00;63.30;;;;;;4063651;29;20109;-63
2022/03/15 03:42:00;;;;;;;9.02;6.45;;;16.00;63.20;;;;;;4056581;29;20052;-63
2022/03/15 03:44:24;;;;;;;10.02;6.78;;;16.10;63.20;;;;;;4064841;29;20056;-63
2022/03/15 03:46:46;;;;;;;10.27;5.85;;;16.10;63.00;;;;;;4064624;29;20052;-64
2022/03/15 03:49:08;;;;;;;11.13;6.70;;;16.10;62.80;;;;;;4064631;29;20122;-64
2022/03/15 03:51:30;;;;;;;11.85;6.78;;;16.10;62.80;;;;;;4042895;29;20552;-63
2022/03/15 03:53:52;;;;;;;13.80;6.60;;;16.10;62.90;;;;;;4050434;29;20084;-63
2022/03/15 03:56:15;;;;;;;14.80;6.90;;;16.10;62.80;;;;;;4064582;29;20059;-63
2022/03/15 03:58:38;;;;;;;11.55;6.57;;;16.20;62.90;;;;;;4064788;29;20071;-63
2022/03/15 04:01:01;;;;;;;12.95;7.30;;;16.20;62.80;;;;;;4065073;29;20119;-63
2022/03/15 04:03:24;;;;;;;13.88;7.80;;;16.20;62.70;;;;;;4064745;29;20043;-63
2022/03/15 04:05:49;;;;;;;11.82;7.72;;;16.20;62.70;;;;;;4062692;29;20143;-63
2022/03/15 04:08:13;;;;;;;13.85;8.05;;;16.20;62.90;;;;;;4064298;29;20529;-63
2022/03/15 04:10:37;;;;;;;16.52;8.30;;;16.20;62.90;;;;;;4058914;29;20115;-63
2022/03/15 04:13:02;;;;;;;11.57;8.27;;;16.30;62.80;;;;;;4059414;29;20115;-63
2022/03/15 04:15:24;;;;;;;10.90;7.85;;;16.30;62.60;;;;;;4064240;29;20074;-62
2022/03/15 04:17:47;;;;;;;16.45;8.05;;;16.30;62.40;;;;;;4064278;29;20079;-63
2022/03/15 04:20:10;;;;;;;13.75;7.32;;;16.40;62.30;;;;;;4064183;29;20230;-63
2022/03/15 04:22:33;;;;;;;11.93;6.80;;;16.40;62.10;;;;;;4064829;29;20410;-63
2022/03/15 04:24:55;;;;;;;13.05;6.80;;;16.40;62.10;;;;;;4064395;29;20063;-64
2022/03/15 04:27:17;;;;;;;14.88;7.70;;;16.30;62.00;;;;;;4056245;29;20059;-64
2022/03/15 04:29:40;;;;;;;11.68;7.78;;;16.30;62.20;;;;;;4048348;29;20770;-63
2022/03/15 04:32:02;;;;;;;11.73;7.32;;;16.30;62.20;;;;;;4048410;29;20044;-63
2022/03/15 04:34:25;;;;;;;10.05;7.15;;;16.20;62.30;;;;;;4049722;29;20055;-63
2022/03/15 04:36:48;;;;;;;8.98;6.97;;;16.20;62.40;;;;;;4047824;29;20052;-64
2022/03/15 04:39:10;;;;;;;12.32;7.72;;;16.20;62.50;;;;;;4048615;29;20132;-64
2022/03/15 04:41:32;;;;;;;13.27;7.50;;;16.10;62.70;;;;;;4047700;29;20724;-64
2022/03/15 04:43:54;;;;;;;19.52;7.18;;;16.10;63.00;;;;;;4060124;29;20083;-63
2022/03/15 04:46:17;;;;;;;13.43;7.95;;;16.10;63.00;;;;;;4034255;29;20385;-64
2022/03/15 04:48:40;;;;;;;11.00;6.53;;;16.10;62.90;;;;;;4052282;29;20790;-64
2022/03/15 04:51:07;;;;;;;14.90;7.30;;;16.10;63.00;;;;;;4046895;29;20060;-65
2022/03/15 04:53:29;;;;;;;16.08;7.60;;;16.10;62.70;;;;;;4079370;29;20071;-64
2022/03/15 04:55:53;;;;;;;13.25;7.68;;;16.10;62.80;;;;;;4079589;29;20418;-64
2022/03/15 04:58:16;;;;;;;12.93;7.95;;;16.10;63.00;;;;;;4079059;29;20043;-64
2022/03/15 05:00:38;;;;;;;13.95;8.10;;;16.10;63.10;;;;;;4048204;29;20063;-64
2022/03/15 05:03:01;;;;;;;9.75;7.20;;;16.00;63.20;;;;;;4047955;29;20539;-64
2022/03/15 05:05:23;;;;;;;12.05;8.27;;;16.10;63.40;;;;;;4063262;29;20079;-64
2022/03/15 05:07:46;;;;;;;13.00;7.00;;;16.10;63.30;;;;;;4063654;29;20063;-64
2022/03/15 05:12:49;;;;;;;14.05;7.60;;;16.10;63.10;;;;;;4047591;29;20099;-64
2022/03/15 05:15:11;;;;;;;13.73;8.57;;;16.20;63.00;;;;;;4043532;29;20064;-64
2022/03/15 05:17:36;;;;;;;11.20;7.80;;;16.20;62.80;;;;;;4060247;29;20062;-64
2022/03/15 05:20:03;;;;;;;13.38;7.70;;;16.20;63.60;;;;;;4047950;29;20048;-64
2022/03/15 05:22:26;;;;;;;12.23;7.68;;;16.20;62.70;;;;;;4048420;29;20048;-64
2022/03/15 05:24:49;;;;;;;10.48;7.38;;;16.20;62.60;;;;;;4048127;29;20056;-64
2022/03/15 05:27:12;;;;;;;14.00;8.60;;;16.20;62.60;;;;;;4047676;29;20056;-64
2022/03/15 05:29:34;;;;;;;15.55;9.02;;;16.20;62.60;;;;;;4056774;29;20514;-64
2022/03/15 05:31:56;;;;;;;20.08;9.88;;;16.20;62.60;;;;;;4057462;29;20052;-64
2022/03/15 05:34:18;;;;;;;16.38;9.00;;;16.20;62.60;;;;;;4048066;29;20163;-64
2022/03/15 05:36:40;;;;;;;20.17;10.15;;;16.20;62.60;;;;;;4048145;29;20148;-64
2022/03/15 05:39:04;;;;;;;15.48;9.85;;;16.20;63.60;;;;;;4047806;29;20139;-64
2022/03/15 05:41:27;;;;;;;17.67;9.43;;;16.10;62.70;;;;;;4033608;29;20508;-64
2022/03/15 05:43:49;;;;;;;25.17;9.82;;;16.10;62.80;;;;;;4048604;29;20064;-64
2022/03/15 05:46:13;;;;;;;15.15;9.73;;;16.10;63.10;;;;;;4062844;29;20140;-64
2022/03/15 05:48:35;;;;;;;23.23;11.35;;;16.10;63.20;;;;;;4038794;29;20049;-64
2022/03/15 05:50:58;;;;;;;24.70;12.23;;;16.20;63.00;;;;;;4047767;29;20044;-64
2022/03/15 05:53:19;;;;;;;18.38;10.98;;;16.30;62.60;;;;;;4048080;29;20056;-64
2022/03/15 05:55:44;;;;;;;18.75;11.15;;;16.40;63.10;;;;;;4054101;29;20044;-64
2022/03/15 05:58:09;;;;;;;20.77;11.32;;;16.40;62.20;;;;;;4037677;29;20399;-64
2022/03/15 06:00:32;;;;;;;21.35;10.88;;;16.40;62.10;;;;;;4044591;29;20044;-64
2022/03/15 06:02:54;;;;;;;21.88;10.40;;;16.40;62.00;;;;;;4060052;29;20063;-65
2022/03/15 06:05:17;;;;;;;14.90;10.40;;;16.40;61.90;;;;;;4048859;29;20388;-64
2022/03/15 06:07:44;;;;;;;16.90;9.90;;;16.40;62.00;;;;;;4063088;29;20072;-64
2022/03/15 06:10:09;;;;;;;17.70;10.52;;;16.40;61.90;;;;;;4051274;29;20076;-64
2022/03/15 06:12:31;;;;;;;20.67;11.35;;;16.40;62.20;;;;;;4033216;29;20055;-64
2022/03/15 06:14:54;;;;;;;17.20;10.27;;;16.40;62.20;;;;;;4047489;29;20048;-64
2022/03/15 06:17:16;;;;;;;18.00;10.75;;;16.40;62.30;;;;;;4047171;29;20637;-64
2022/03/15 06:19:38;;;;;;;21.30;11.93;;;16.40;62.30;;;;;;4047281;29;20048;-64
2022/03/15 06:22:01;;;;;;;19.60;11.15;;;16.40;62.40;;;;;;4047141;29;20056;-64
2022/03/15 06:24:26;;;;;;;19.55;11.90;;;16.40;62.40;;;;;;4047057;29;20049;-64
2022/03/15 06:26:48;;;;;;;20.23;12.13;;;16.40;62.50;;;;;;4047950;29;20530;-63
2022/03/15 06:29:13;;;;;;;19.90;11.35;;;16.40;62.50;;;;;;4047264;29;20086;-64
2022/03/15 06:31:38;;;;;;;20.38;11.02;;;16.40;62.40;;;;;;4047050;29;20458;-65
2022/03/15 06:34:01;;;;;;;20.35;11.32;;;16.40;62.40;;;;;;4062161;29;20060;-64
2022/03/15 06:36:23;;;;;;;21.42;11.88;;;16.40;62.30;;;;;;4062616;29;20060;-64
2022/03/15 06:38:46;;;;;;;17.25;12.70;;;16.30;62.40;;;;;;4062600;29;20134;-67
2022/03/15 06:41:09;;;;;;;22.00;12.93;;;16.30;62.50;;;;;;4058039;29;20120;-63
2022/03/15 06:43:31;;;;;;;22.17;13.05;;;16.30;63.10;;;;;;4050044;29;20144;-65
2022/03/15 06:45:53;;;;;;;20.35;10.77;;;16.40;63.60;;;;;;4062203;29;20131;-64
2022/03/15 06:48:17;;;;;;;21.10;11.05;;;16.50;63.50;;;;;;4055956;29;20392;-64
2022/03/15 06:50:40;;;;;;;25.17;12.68;;;16.60;63.10;;;;;;4054196;29;20131;-65
2022/03/15 06:53:03;;;;;;;21.25;13.20;;;16.60;62.80;;;;;;4063608;29;20361;-64
2022/03/15 06:55:26;;;;;;;23.85;12.82;;;16.60;62.60;;;;;;4074598;29;20553;-65
2022/03/15 06:57:48;;;;;;;22.77;13.77;;;16.70;62.50;;;;;;4050001;29;20056;-64
2022/03/15 07:00:15;;;;;;;21.55;13.43;;;16.60;62.30;;;;;;4050605;29;20052;-64
2022/03/15 07:02:37;;;;;;;22.25;12.77;;;16.60;62.20;;;;;;4044780;29;20136;-64
2022/03/15 07:05:01;;;;;;;21.60;13.30;;;16.60;62.20;;;;;;4060236;29;20051;-64
2022/03/15 07:07:23;;;;;;;25.45;13.73;;;16.60;62.30;;;;;;4049690;29;20083;-64
2022/03/15 07:09:45;;;;;;;23.70;14.23;;;16.50;62.40;;;;;;4065646;29;20103;-64
2022/03/15 07:12:08;;;;;;;27.58;16.33;;;16.50;62.60;;;;;;4064508;29;20056;-64
2022/03/15 07:14:30;;;;;;;25.77;15.10;;;16.50;62.70;;;;;;4064001;29;20179;-64
2022/03/15 07:16:52;;;;;;;24.88;14.88;;;16.40;62.80;;;;;;4065143;29;20044;-64
2022/03/15 07:19:15;;;;;;;25.80;14.65;;;16.40;62.90;;;;;;4051698;29;20052;-64
2022/03/15 07:21:39;;;;;;;24.75;15.13;;;16.30;63.10;;;;;;4034919;29;20468;-63
2022/03/15 07:24:01;;;;;;;25.48;15.00;;;16.30;63.10;;;;;;4035280;29;20056;-63
2022/03/15 07:26:23;;;;;;;24.30;15.45;;;16.30;63.40;;;;;;4048924;29;20052;-62
2022/03/15 07:28:45;;;;;;;25.02;14.45;;;16.20;63.50;;;;;;4049890;29;20064;-63
2022/03/15 07:31:08;;;;;;;24.73;15.57;;;16.20;63.60;;;;;;4051148;29;20063;-62
2022/03/15 07:33:30;;;;;;;21.00;13.27;;;16.10;63.70;;;;;;4065365;29;20126;-63
2022/03/15 07:35:52;;;;;;;23.33;15.27;;;16.10;63.80;;;;;;4065229;29;20458;-64
2022/03/15 07:38:17;;;;;;;20.98;13.75;;;16.10;63.90;;;;;;4065278;29;20562;-62
2022/03/15 07:40:42;;;;;;;23.38;14.70;;;16.00;64.00;;;;;;4064741;29;20076;-62
2022/03/15 07:43:04;;;;;;;25.23;14.65;;;16.00;64.20;;;;;;4063021;29;20075;-64
2022/03/15 07:45:28;;;;;;;24.42;15.10;;;15.90;65.30;;;;;;4064647;29;20051;-65
2022/03/15 07:47:50;;;;;;;27.55;15.65;;;16.00;65.10;;;;;;4058765;29;20364;-63
2022/03/15 07:50:13;;;;;;;26.20;16.02;;;16.00;65.20;;;;;;4049176;29;20137;-65
2022/03/15 07:52:35;;;;;;;24.17;15.50;;;16.20;65.20;;;;;;4048597;29;20479;-64
2022/03/15 07:55:00;;;;;;;27.42;15.95;;;16.30;64.80;;;;;;4049069;29;20052;-66
2022/03/15 07:57:22;;;;;;;25.55;15.75;;;16.30;64.30;;;;;;4049491;29;20478;-67
2022/03/15 07:59:46;;;;;;;28.30;16.75;;;16.40;64.00;;;;;;4049251;29;20530;-67
2022/03/15 08:02:08;;;;;;;23.88;16.38;;;16.50;63.70;;;;;;4053091;29;20075;-67
2022/03/15 08:04:30;;;;;;;31.25;17.05;;;16.50;63.40;;;;;;4064311;29;20047;-67
2022/03/15 08:06:52;;;;;;;24.65;17.25;;;16.50;63.30;;;;;;4053459;29;20529;-67
2022/03/15 08:09:15;;;;;;;27.58;17.02;;;16.50;63.20;;;;;;4049258;29;20507;-67
2022/03/15 08:11:41;;;;;;;26.75;17.13;;;16.50;64.20;;;;;;4048784;29;20064;-64
2022/03/15 08:14:05;;;;;;;33.03;17.45;;;16.40;63.30;;;;;;4048606;29;20415;-63
2022/03/15 08:16:28;;;;;;;26.27;17.15;;;16.40;63.30;;;;;;4053781;29;20136;-62
2022/03/15 08:18:52;;;;;;;28.42;17.63;;;16.40;63.30;;;;;;4034888;29;20080;-63
2022/03/15 08:21:15;;;;;;;28.15;17.73;;;16.30;63.40;;;;;;4048847;29;20468;-62
2022/03/15 08:23:37;;;;;;;28.30;18.05;;;16.30;63.80;;;;;;4060417;29;20410;-63
2022/03/15 08:25:59;;;;;;;29.80;18.73;;;16.30;64.00;;;;;;4050062;29;20052;-62
2022/03/15 08:28:24;;;;;;;29.40;18.95;;;16.40;63.90;;;;;;4064259;29;20059;-62
2022/03/15 08:30:46;;;;;;;33.20;18.17;;;16.40;63.60;;;;;;4064112;29;20048;-63
2022/03/15 08:33:09;;;;;;;28.88;19.25;;;16.50;63.20;;;;;;4063133;29;20139;-62
2022/03/15 08:35:31;;;;;;;29.30;18.60;;;16.50;63.00;;;;;;4064182;29;20052;-62
2022/03/15 08:37:53;;;;;;;27.90;18.42;;;16.60;62.90;;;;;;4064047;29;20585;-63
2022/03/15 08:40:16;;;;;;;35.22;20.20;;;16.50;62.70;;;;;;4064330;29;20123;-63
2022/03/15 08:42:39;;;;;;;27.45;17.98;;;16.50;62.80;;;;;;4056430;29;20140;-62
2022/03/15 08:45:05;;;;;;;29.10;19.67;;;16.50;62.90;;;;;;4059036;29;20406;-63
2022/03/15 08:47:28;;;;;;;30.20;20.20;;;16.50;63.00;;;;;;4063999;29;20071;-63
2022/03/15 08:49:50;;;;;;;30.25;18.90;;;16.50;63.10;;;;;;4064043;29;20063;-63
2022/03/15 08:52:12;;;;;;;32.78;19.95;;;16.40;63.20;;;;;;4064346;29;20052;-62
2022/03/15 08:54:34;;;;;;;30.02;18.45;;;16.40;63.30;;;;;;4064125;29;20826;-63
2022/03/15 08:56:57;;;;;;;29.67;18.73;;;16.30;63.40;;;;;;4049676;29;20049;-63
2022/03/15 08:59:20;;;;;;;32.65;20.52;;;16.30;63.60;;;;;;4048370;29;20045;-63
2022/03/15 09:01:44;;;;;;;31.45;19.33;;;16.30;63.80;;;;;;4049955;29;20116;-64
2022/03/15 09:04:07;;;;;;;31.75;19.65;;;16.20;63.90;;;;;;4063770;29;20472;-63
2022/03/15 09:06:29;;;;;;;28.48;18.75;;;16.20;64.00;;;;;;4048949;29;20120;-63
2022/03/15 09:08:51;;;;;;;33.22;19.65;;;16.20;64.10;;;;;;4063814;29;20052;-63
2022/03/15 09:11:14;;;;;;;26.75;19.27;;;16.20;64.10;;;;;;4063475;29;20410;-63
2022/03/15 09:13:37;;;;;;;29.50;19.25;;;16.20;64.20;;;;;;4060845;29;20056;-63
2022/03/15 09:16:03;;;;;;;28.98;19.13;;;16.20;64.10;;;;;;4054862;29;20044;-63
2022/03/15 09:18:26;;;;;;;29.52;18.75;;;16.20;64.10;;;;;;4062907;29;20406;-63
2022/03/15 09:20:49;;;;;;;31.95;20.55;;;16.20;64.20;;;;;;4063952;29;20491;-63
2022/03/15 09:23:10;;;;;;;27.85;18.88;;;16.30;63.90;;;;;;4061423;29;20079;-65
2022/03/15 09:25:33;;;;;;;30.80;19.45;;;16.40;63.50;;;;;;4062505;29;20490;-65
2022/03/15 09:27:55;;;;;;;25.40;18.55;;;16.50;63.10;;;;;;4061913;29;20556;-65
2022/03/15 09:30:18;;;;;;;27.30;18.83;;;16.50;62.90;;;;;;4048172;29;20057;-65
2022/03/15 09:32:41;;;;;;;28.52;18.05;;;16.60;62.80;;;;;;4048128;29;20056;-65
2022/03/15 09:35:05;;;;;;;27.73;19.33;;;16.60;62.70;;;;;;4048168;29;20056;-66
2022/03/15 09:37:27;;;;;;;29.63;20.27;;;16.50;62.70;;;;;;4048038;29;20066;-63
2022/03/15 09:39:51;;;;;;;27.90;19.20;;;16.50;62.90;;;;;;4048374;29;20045;-63
2022/03/15 09:42:14;;;;;;;31.05;20.02;;;16.50;62.90;;;;;;4047730;29;20056;-62
2022/03/15 09:44:39;;;;;;;29.58;19.67;;;16.50;63.10;;;;;;4054214;29;20044;-63
2022/03/15 09:47:05;;;;;;;27.58;19.08;;;16.40;63.30;;;;;;4063453;29;20076;-63
2022/03/15 09:49:28;;;;;;;28.45;19.85;;;16.50;63.30;;;;;;4063797;29;20054;-61
2022/03/15 09:51:53;;;;;;;29.42;19.13;;;16.40;63.30;;;;;;4063649;29;20048;-63
2022/03/15 09:54:17;;;;;;;25.95;19.38;;;16.40;63.20;;;;;;4056961;29;20395;-63
2022/03/15 09:56:40;;;;;;;31.92;19.20;;;16.40;63.30;;;;;;4063530;29;20060;-63
2022/03/15 09:59:02;;;;;;;29.35;19.30;;;16.50;63.40;;;;;;4063544;29;20052;-63
2022/03/15 10:01:24;;;;;;;29.77;19.42;;;16.50;63.40;;;;;;4063757;29;20147;-63
2022/03/15 10:03:47;;;;;;;28.48;18.25;;;16.50;63.30;;;;;;4064156;29;20056;-63
2022/03/15 10:06:09;;;;;;;26.48;18.48;;;16.60;63.40;;;;;;4063622;29;20408;-63
2022/03/15 10:08:33;;;;;;;26.98;18.80;;;16.60;63.30;;;;;;4063183;29;20075;-63
2022/03/15 10:10:55;;;;;;;27.17;18.00;;;16.60;63.10;;;;;;4063432;29;20499;-63
2022/03/15 10:13:17;;;;;;;29.23;18.42;;;16.60;63.10;;;;;;4063479;29;20517;-63
2022/03/15 10:15:51;;;;;;;29.17;18.45;;;16.60;63.10;;;;;;4063352;29;20522;-63
2022/03/15 10:18:18;;;;;;;29.17;18.33;;;16.60;63.00;;;;;;4062928;29;20107;-63
2022/03/15 10:20:42;;;;;;;25.65;18.13;;;16.60;63.10;;;;;;4062782;29;20134;-64
2022/03/15 10:23:05;;;;;;;24.88;18.38;;;16.60;63.10;;;;;;4058993;29;20060;-62
2022/03/15 10:25:31;;;;;;;22.48;17.50;;;16.60;63.10;;;;;;4062821;29;20048;-63
2022/03/15 10:27:56;;;;;;;27.05;18.67;;;16.60;63.10;;;;;;4061651;29;20058;-62
2022/03/15 10:30:18;;;;;;;26.77;17.73;;;16.60;63.10;;;;;;4058935;29;20056;-63
2022/03/15 10:32:41;;;;;;;25.83;17.77;;;16.60;63.10;;;;;;4046815;29;20131;-62
2022/03/15 10:35:08;;;;;;;23.08;17.13;;;16.60;63.10;;;;;;4044653;29;20417;-62
2022/03/15 10:37:32;;;;;;;24.52;17.17;;;16.60;63.00;;;;;;4032921;29;20587;-62
2022/03/15 10:39:54;;;;;;;28.38;18.75;;;16.60;62.70;;;;;;4054865;29;20062;-65
2022/03/15 10:42:24;;;;;;;22.73;17.60;;;16.70;62.60;;;;;;4063249;29;20052;-64
2022/03/15 10:44:46;;;;;;;30.23;18.55;;;16.80;62.40;;;;;;4062418;29;20056;-64
2022/03/15 10:47:13;;;;;;;24.27;17.92;;;16.80;62.40;;;;;;4062766;29;20062;-64
2022/03/15 10:49:50;;;;;;;24.25;17.27;;;16.80;62.30;;;;;;4062334;29;20079;-64
2022/03/15 10:52:12;;;;;;;23.60;16.98;;;16.80;62.30;;;;;;4062782;29;20059;-64
2022/03/15 10:54:35;;;;;;;27.45;17.90;;;16.80;62.30;;;;;;4062344;29;20522;-64
2022/03/15 10:57:00;;;;;;;27.58;17.30;;;16.70;62.30;;;;;;4062216;29;20123;-64
2022/03/15 10:59:23;;;;;;;24.60;17.15;;;16.70;62.40;;;;;;4062762;29;20056;-64
2022/03/15 11:01:49;;;;;;;26.70;16.30;;;16.70;62.50;;;;;;4062182;29;20064;-64
2022/03/15 11:04:12;;;;;;;26.17;16.90;;;16.60;62.60;;;;;;4057279;29;20395;-64
2022/03/15 11:06:38;;;;;;;22.80;15.57;;;16.60;62.80;;;;;;4061946;29;20127;-64
2022/03/15 11:09:21;;;;;;;24.95;16.45;;;16.60;62.90;;;;;;4051294;29;20056;-64
2022/03/15 11:11:45;;;;;;;21.90;15.60;;;16.50;63.10;;;;;;4032932;29;20048;-64
2022/03/15 11:14:09;;;;;;;19.98;15.32;;;16.50;63.20;;;;;;4033340;29;20057;-64
2022/03/15 11:16:36;;;;;;;24.67;15.02;;;16.40;63.40;;;;;;4047293;29;20049;-64
2022/03/15 11:19:00;;;;;;;21.83;14.50;;;16.40;63.90;;;;;;4046858;29;20048;-64
2022/03/15 11:21:23;;;;;;;24.08;14.35;;;16.40;63.90;;;;;;4047425;29;20120;-63
2022/03/15 11:23:47;;;;;;;21.48;13.25;;;16.40;64.00;;;;;;4047272;29;20107;-61
2022/03/15 11:26:12;;;;;;;24.00;14.65;;;16.40;64.10;;;;;;4059148;29;20052;-64
2022/03/15 11:28:37;;;;;;;22.33;13.90;;;16.40;64.10;;;;;;4043909;29;20794;-65
2022/03/15 11:31:01;;;;;;;27.73;14.70;;;16.40;63.90;;;;;;4062385;29;20048;-64
2022/03/15 11:33:26;;;;;;;20.92;14.35;;;16.50;64.40;;;;;;4053644;29;20398;-64
2022/03/15 11:35:50;;;;;;;19.98;13.18;;;16.60;64.20;;;;;;4047934;29;20056;-64
2022/03/15 11:38:14;;;;;;;19.55;13.10;;;16.70;64.00;;;;;;4046507;29;20104;-64
2022/03/15 11:40:37;;;;;;;23.13;15.02;;;16.70;63.70;;;;;;4057132;29;20040;-63
2022/03/15 11:43:13;;;;;;;17.65;12.05;;;16.80;63.50;;;;;;4045428;29;20119;-64
2022/03/15 11:45:41;;;;;;;22.75;13.73;;;16.90;63.30;;;;;;4049223;29;20052;-64
2022/03/15 11:48:09;;;;;;;18.60;12.60;;;16.90;63.10;;;;;;4048795;29;20076;-64
2022/03/15 11:50:39;;;;;;;18.95;12.10;;;16.90;63.70;;;;;;4066113;29;20063;-63
2022/03/15 11:53:07;;;;;;;26.38;15.98;;;16.90;62.70;;;;;;4062128;29;20062;-63
2022/03/15 11:55:34;;;;;;;20.52;12.90;;;16.90;62.80;;;;;;4075875;29;20051;-63
2022/03/15 11:58:03;;;;;;;21.65;13.48;;;16.90;62.80;;;;;;4060073;29;20087;-65
2022/03/15 12:00:33;;;;;;;19.02;13.68;;;16.90;63.00;;;;;;4057074;29;20048;-63
2022/03/15 12:02:59;;;;;;;25.45;16.67;;;16.90;63.00;;;;;;4062975;29;20411;-64
2022/03/15 12:05:22;;;;;;;24.08;16.10;;;16.80;63.10;;;;;;4050973;29;20408;-64
2022/03/15 12:07:47;;;;;;;108.97;65.05;;;16.80;63.20;;;;;;4058134;29;20060;-64
2022/03/15 12:10:10;;;;;;;23.42;15.20;;;16.80;63.40;;;;;;4049027;29;20060;-64
2022/03/15 12:12:35;;;;;;;28.80;19.23;;;16.70;63.50;;;;;;4051759;29;20503;-63
2022/03/15 12:14:57;;;;;;;67.72;36.35;;;16.70;63.80;;;;;;4064510;29;20056;-63
2022/03/15 12:17:20;;;;;;;103.72;55.28;;;16.70;63.90;;;;;;4061572;29;20052;-64